Airfield :
LOGIN :

Register | Disclaimer

   EN    FR    IT 

 










Legend :    VFR   Marginal VFR   IFR   Intensive IFR   Very Intensive IFR
Visi :
Ceiling :
>= 8 km
>= 3000ft
5 to 8 km
1000 to 3000 ft
1500m to 5 km
500 to 1000 ft
800 to 1500m
200 to 500 ft
< 800m
< 200 ft
Symbols :   Thunderstorms  Fog  Heavy snow  Heavy precipitations  Wind > 20 kt
SIGMETs :     Misc.  Thunderstorms  Icing  Turbulence  Mountain Waves  Volcanic Ashes






- Airport Elevation : 1708 ft
- IATA code : SJJ


LQSA - Sarajevo

CURRENT METAR :
  • 241300Z 34006KT 310V020 9999 FEW040 BKN050 10/02 Q1023 NOSIG

EXPIRED METARs :
  • 241230Z 33006KT 290V020 9999 FEW040 BKN050 10/02 Q1023 NOSIG
  • 241200Z 32005KT 290V360 9999 FEW040 BKN050 10/03 Q1023 NOSIG
  • 241130Z 36005KT 330V050 9999 SCT035 BKN045 10/04 Q1024 NOSIG
  • 241100Z 35006KT 310V030 9999 SCT033 BKN040 10/05 Q1024 NOSIG

TAF COR TAF LQSA
Valid from the 24 at 12:00 until the 25 at 12:00 UTC


241100Z 2412/2512 VRB02KT 9999 SCT050 TX14/2512Z TNM01/2506Z
PROB30
TEMPO 2420/2508 3000 BR
PROB30
TEMPO 2510/2512 15012KT



MET'MAP, your aeronautical weather chart ! - Copyright ORBIFLY December 2007 - Disclaimer

ORBIFLY MET'MAP TEAM :

Programming & Development : Alexandra Zaïnal
Concept & original design : Baudouin d'Aumeries
Assistance for programming : Marc-Olivier Méhu
Technical & hardware support : Manuel Goepfert

Contact : metmap@orbifly.com




SOURCES & CREDITS :

   NOAA